Time;durP1;ratioP1;P1;durP2;ratioP2;P2;SDS_P1;SDS_P2;PMS_P1;PMS_P2;Temp;Humidity;BMP_temperature;BMP_pressure;BME280_temperature;BME280_humidity;BME280_pressure;Samples;Min_cycle;Max_cycle;Signal;HPM_P1;HPM_P2
2020/12/13 00:00:08;;;;;;;9.65;7.13;;;;;;;;;;5002716;28;20038;-84
2020/12/13 00:02:34;;;;;;;8.13;6.40;;;;;;;;;;5003014;28;20042;-84
2020/12/13 00:05:00;;;;;;;8.15;6.90;;;;;;;;;;4984328;28;20042;-83
2020/12/13 00:07:27;;;;;;;8.23;6.95;;;;;;;;;;5000250;28;20431;-84
2020/12/13 00:09:53;;;;;;;7.93;6.55;;;;;;;;;;4984228;28;20069;-84
2020/12/13 00:12:19;;;;;;;8.45;6.63;;;;;;;;;;4968389;28;20046;-84
2020/12/13 00:14:45;;;;;;;10.48;7.43;;;;;;;;;;5001750;28;20443;-84
2020/12/13 00:17:11;;;;;;;9.35;6.55;;;;;;;;;;5002840;28;20502;-84
2020/12/13 00:19:37;;;;;;;8.30;6.68;;;;;;;;;;5001225;28;20057;-84
2020/12/13 00:22:03;;;;;;;9.32;7.25;;;;;;;;;;5001977;28;20058;-84
2020/12/13 00:24:29;;;;;;;10.15;7.32;;;;;;;;;;4984537;28;20085;-84
2020/12/13 00:26:55;;;;;;;8.70;6.70;;;;;;;;;;5001150;28;20470;-84
2020/12/13 00:29:22;;;;;;;8.57;6.60;;;;;;;;;;4984412;28;20049;-84
2020/12/13 00:31:49;;;;;;;7.90;6.10;;;;;;;;;;5001480;28;20474;-84
2020/12/13 00:34:15;;;;;;;8.93;6.63;;;;;;;;;;5001316;28;20135;-84
2020/12/13 00:36:42;;;;;;;9.07;7.20;;;;;;;;;;4999530;28;20166;-84
2020/12/13 00:39:08;;;;;;;9.27;7.22;;;;;;;;;;4984041;28;20046;-84
2020/12/13 00:41:34;;;;;;;9.27;7.03;;;;;;;;;;4998549;28;20155;-84
2020/12/13 00:44:01;;;;;;;10.73;7.93;;;;;;;;;;4997543;28;20053;-83
2020/12/13 00:46:27;;;;;;;9.32;7.45;;;;;;;;;;4998207;28;20046;-83
2020/12/13 00:48:53;;;;;;;9.98;7.80;;;;;;;;;;5014249;28;20042;-85
2020/12/13 00:51:24;;;;;;;10.57;8.23;;;;;;;;;;5000335;28;20092;-84
2020/12/13 00:53:50;;;;;;;9.05;7.18;;;;;;;;;;5017150;28;20046;-84
2020/12/13 00:56:16;;;;;;;9.63;7.45;;;;;;;;;;4999445;28;20482;-84
2020/12/13 00:58:43;;;;;;;11.27;8.45;;;;;;;;;;5016694;28;20097;-84
2020/12/13 01:01:09;;;;;;;9.93;7.55;;;;;;;;;;5016655;28;20482;-83
2020/12/13 01:03:35;;;;;;;10.70;8.48;;;;;;;;;;4998965;28;20053;-84
2020/12/13 01:06:01;;;;;;;11.73;8.68;;;;;;;;;;4999125;28;20501;-84
2020/12/13 01:08:27;;;;;;;11.20;8.23;;;;;;;;;;5016308;28;20046;-84
2020/12/13 01:10:53;;;;;;;12.77;8.38;;;;;;;;;;5016761;28;20052;-83
2020/12/13 01:13:19;;;;;;;13.25;9.30;;;;;;;;;;5017140;28;20049;-83
2020/12/13 01:15:48;;;;;;;11.98;9.32;;;;;;;;;;5017289;28;20091;-83
2020/12/13 01:18:14;;;;;;;12.15;9.38;;;;;;;;;;5016266;28;20524;-83
2020/12/13 01:20:40;;;;;;;11.20;8.98;;;;;;;;;;5017310;28;20050;-83
2020/12/13 01:23:06;;;;;;;10.77;8.60;;;;;;;;;;5016090;28;20470;-83
2020/12/13 01:25:32;;;;;;;13.70;9.93;;;;;;;;;;5016291;28;20129;-83
2020/12/13 01:27:58;;;;;;;13.00;9.60;;;;;;;;;;5015868;28;20057;-83
2020/12/13 01:30:24;;;;;;;12.88;9.52;;;;;;;;;;5016052;28;20178;-82
2020/12/13 01:32:51;;;;;;;12.27;9.45;;;;;;;;;;4983305;28;20043;-82
2020/12/13 01:35:17;;;;;;;13.85;9.80;;;;;;;;;;4996560;28;20494;-82
2020/12/13 01:37:43;;;;;;;12.48;9.25;;;;;;;;;;4978920;28;20049;-83
2020/12/13 01:40:09;;;;;;;15.23;10.50;;;;;;;;;;4979267;28;20043;-83
2020/12/13 01:42:38;;;;;;;13.05;9.48;;;;;;;;;;4997076;28;20382;-82
2020/12/13 01:45:05;;;;;;;14.05;9.88;;;;;;;;;;4996553;28;20050;-82
2020/12/13 01:47:31;;;;;;;12.48;9.40;;;;;;;;;;4995743;28;20081;-82
2020/12/13 01:49:58;;;;;;;12.77;9.20;;;;;;;;;;4996199;28;20095;-83
2020/12/13 01:52:46;;;;;;;13.13;9.43;;;;;;;;;;4994873;28;20038;-82
2020/12/13 01:55:17;;;;;;;12.27;9.50;;;;;;;;;;4997509;28;20050;-82
2020/12/13 01:57:46;;;;;;;12.32;8.30;;;;;;;;;;4996805;28;20046;-82
2020/12/13 02:00:13;;;;;;;10.88;8.57;;;;;;;;;;4979470;28;20077;-83
2020/12/13 02:02:44;;;;;;;12.57;9.00;;;;;;;;;;4996154;28;20378;-82
2020/12/13 02:05:13;;;;;;;11.23;8.27;;;;;;;;;;4996697;28;20049;-83
2020/12/13 02:07:39;;;;;;;12.27;8.88;;;;;;;;;;4995996;28;20046;-83
2020/12/13 02:10:08;;;;;;;11.00;8.40;;;;;;;;;;4995897;28;20046;-83
2020/12/13 02:12:34;;;;;;;12.30;9.13;;;;;;;;;;4996606;28;20068;-83
2020/12/13 02:15:01;;;;;;;10.02;7.72;;;;;;;;;;4994414;28;20490;-83
2020/12/13 02:17:27;;;;;;;11.18;8.63;;;;;;;;;;4995984;28;20042;-83
2020/12/13 02:19:53;;;;;;;13.50;8.63;;;;;;;;;;4995708;28;20046;-83
2020/12/13 02:22:20;;;;;;;11.15;8.25;;;;;;;;;;4979146;28;20042;-83
2020/12/13 02:24:46;;;;;;;10.43;8.18;;;;;;;;;;4978203;28;20097;-82
2020/12/13 02:27:12;;;;;;;11.43;8.18;;;;;;;;;;4995012;28;20042;-82
2020/12/13 02:29:38;;;;;;;10.63;7.85;;;;;;;;;;4995649;28;20394;-82
2020/12/13 02:32:05;;;;;;;9.15;7.10;;;;;;;;;;4995779;28;20049;-82
2020/12/13 02:34:31;;;;;;;10.40;7.85;;;;;;;;;;4976841;28;20097;-83
2020/12/13 02:36:57;;;;;;;11.60;7.90;;;;;;;;;;4995637;28;20054;-83
2020/12/13 02:39:24;;;;;;;11.52;8.40;;;;;;;;;;4977797;28;20042;-82
2020/12/13 02:42:00;;;;;;;10.15;7.70;;;;;;;;;;4996144;28;20042;-82
2020/12/13 02:44:27;;;;;;;9.73;7.35;;;;;;;;;;4995091;28;20038;-82
2020/12/13 02:46:53;;;;;;;10.80;8.05;;;;;;;;;;4995265;28;20046;-83
2020/12/13 02:49:19;;;;;;;10.15;7.68;;;;;;;;;;4995467;28;20430;-82
2020/12/13 02:51:45;;;;;;;11.07;8.00;;;;;;;;;;4978182;28;20038;-83
2020/12/13 02:54:11;;;;;;;9.63;7.30;;;;;;;;;;4995464;28;20054;-82
2020/12/13 02:56:40;;;;;;;11.30;8.35;;;;;;;;;;4994678;28;20133;-82
2020/12/13 02:59:06;;;;;;;11.95;8.23;;;;;;;;;;4994650;28;20054;-83
2020/12/13 03:01:32;;;;;;;11.25;8.30;;;;;;;;;;4977685;28;20085;-83
2020/12/13 03:03:58;;;;;;;11.15;8.15;;;;;;;;;;4962657;28;20054;-83
2020/12/13 03:06:24;;;;;;;11.02;8.35;;;;;;;;;;4994719;28;20046;-82
2020/12/13 03:08:50;;;;;;;11.40;8.52;;;;;;;;;;4994467;28;20106;-83
2020/12/13 03:11:19;;;;;;;12.82;8.88;;;;;;;;;;4961654;28;20085;-82
2020/12/13 03:13:47;;;;;;;12.27;8.15;;;;;;;;;;4994658;28;20509;-83
2020/12/13 03:16:13;;;;;;;11.25;8.70;;;;;;;;;;4994905;28;20038;-83
2020/12/13 03:18:39;;;;;;;15.18;10.02;;;;;;;;;;4994883;28;20057;-83
2020/12/13 03:21:05;;;;;;;12.18;9.45;;;;;;;;;;4977543;28;20038;-83
2020/12/13 03:23:31;;;;;;;13.13;9.38;;;;;;;;;;4977820;28;20046;-83
2020/12/13 03:25:57;;;;;;;12.95;9.15;;;;;;;;;;4994091;28;20129;-83
2020/12/13 03:28:23;;;;;;;11.98;9.10;;;;;;;;;;4994250;28;20053;-82
2020/12/13 03:30:50;;;;;;;14.07;10.30;;;;;;;;;;4994245;28;20105;-82
2020/12/13 03:33:16;;;;;;;13.85;9.38;;;;;;;;;;4975880;28;20486;-83
2020/12/13 03:35:42;;;;;;;15.32;10.57;;;;;;;;;;4994727;28;20077;-83
2020/12/13 03:38:08;;;;;;;14.52;10.18;;;;;;;;;;4977552;28;20395;-82
2020/12/13 03:40:34;;;;;;;15.05;10.23;;;;;;;;;;4961201;28;20093;-82
2020/12/13 03:43:00;;;;;;;13.52;10.27;;;;;;;;;;4994325;28;20438;-82
2020/12/13 03:45:26;;;;;;;13.40;10.05;;;;;;;;;;4994660;28;20542;-82
2020/12/13 03:47:53;;;;;;;13.50;9.90;;;;;;;;;;4994176;28;20043;-83
2020/12/13 03:50:19;;;;;;;15.40;10.95;;;;;;;;;;4994640;28;20047;-83
2020/12/13 03:52:45;;;;;;;13.43;9.93;;;;;;;;;;4994375;28;20053;-83
2020/12/13 03:55:11;;;;;;;15.43;10.88;;;;;;;;;;4961171;28;20078;-82
2020/12/13 03:57:36;;;;;;;15.20;10.90;;;;;;;;;;4994498;28;20375;-83
2020/12/13 04:00:04;;;;;;;16.40;10.63;;;;;;;;;;4994615;28;20050;-83
2020/12/13 04:02:30;;;;;;;14.23;10.88;;;;;;;;;;4994531;28;20418;-83
2020/12/13 04:04:57;;;;;;;15.98;10.82;;;;;;;;;;4977062;28;20049;-82
2020/12/13 04:07:23;;;;;;;13.73;10.15;;;;;;;;;;4975426;28;20038;-82
2020/12/13 04:09:49;;;;;;;14.80;10.75;;;;;;;;;;4979436;28;20049;-83
2020/12/13 04:12:15;;;;;;;14.50;10.02;;;;;;;;;;4997861;28;20054;-83
2020/12/13 04:14:41;;;;;;;15.00;11.00;;;;;;;;;;4964925;28;20053;-83
2020/12/13 04:17:07;;;;;;;15.55;11.65;;;;;;;;;;4980598;28;20077;-83
2020/12/13 04:19:35;;;;;;;15.45;10.85;;;;;;;;;;4998602;28;20046;-83
2020/12/13 04:22:01;;;;;;;17.63;11.48;;;;;;;;;;4998310;28;20125;-82
2020/12/13 04:24:27;;;;;;;17.90;11.73;;;;;;;;;;4997452;28;20050;-82
2020/12/13 04:26:53;;;;;;;16.48;12.02;;;;;;;;;;4997374;28;20097;-82
2020/12/13 04:29:20;;;;;;;17.88;11.48;;;;;;;;;;4980507;28;20121;-82
2020/12/13 04:31:46;;;;;;;17.90;11.93;;;;;;;;;;4979455;28;20042;-83
2020/12/13 04:34:12;;;;;;;16.85;12.30;;;;;;;;;;4980063;28;20085;-83
2020/12/13 04:36:37;;;;;;;19.05;13.15;;;;;;;;;;4997377;28;20130;-83
2020/12/13 04:39:05;;;;;;;17.23;12.07;;;;;;;;;;4998107;28;20453;-83
2020/12/13 04:41:30;;;;;;;18.15;13.02;;;;;;;;;;4997832;28;20038;-83
2020/12/13 04:43:57;;;;;;;18.17;11.88;;;;;;;;;;4998251;28;20042;-83
2020/12/13 04:46:26;;;;;;;19.25;12.80;;;;;;;;;;4980169;28;20046;-83
2020/12/13 04:48:52;;;;;;;21.25;13.60;;;;;;;;;;4997377;28;20379;-83
2020/12/13 04:51:19;;;;;;;23.38;14.52;;;;;;;;;;4997224;28;20050;-83
2020/12/13 04:53:49;;;;;;;24.30;13.93;;;;;;;;;;4980739;28;20050;-83
2020/12/13 04:56:18;;;;;;;24.63;15.48;;;;;;;;;;4997363;28;20042;-82
2020/12/13 04:58:44;;;;;;;26.33;15.85;;;;;;;;;;4997481;28;20426;-83
2020/12/13 05:01:11;;;;;;;25.77;15.35;;;;;;;;;;4998321;28;20046;-83
2020/12/13 05:03:37;;;;;;;26.95;15.65;;;;;;;;;;4979604;28;20513;-83
2020/12/13 05:06:03;;;;;;;25.08;14.05;;;;;;;;;;4997078;28;20137;-82
2020/12/13 05:08:30;;;;;;;22.65;13.95;;;;;;;;;;4979398;28;20396;-83
2020/12/13 05:10:56;;;;;;;23.08;14.27;;;;;;;;;;4997428;28;20478;-83
2020/12/13 05:13:23;;;;;;;23.55;15.55;;;;;;;;;;4996564;28;20509;-83
2020/12/13 05:15:49;;;;;;;23.33;14.77;;;;;;;;;;4996585;28;20482;-83
2020/12/13 05:18:15;;;;;;;25.20;15.52;;;;;;;;;;4997831;28;20046;-83
2020/12/13 05:20:43;;;;;;;23.55;14.98;;;;;;;;;;4978990;28;20108;-83
2020/12/13 05:23:09;;;;;;;24.98;15.32;;;;;;;;;;4997675;28;20038;-83
2020/12/13 05:25:37;;;;;;;22.27;14.40;;;;;;;;;;4979798;28;20043;-83
2020/12/13 05:28:05;;;;;;;25.77;14.55;;;;;;;;;;4996270;28;20503;-83
2020/12/13 05:30:36;;;;;;;26.65;15.48;;;;;;;;;;4996217;28;20478;-83
2020/12/13 05:33:04;;;;;;;29.83;17.67;;;;;;;;;;4977638;28;20080;-83
2020/12/13 05:35:30;;;;;;;23.83;14.93;;;;;;;;;;4997050;28;20047;-83
2020/12/13 05:37:56;;;;;;;24.00;15.10;;;;;;;;;;4963109;28;20074;-83
2020/12/13 05:40:22;;;;;;;24.92;14.82;;;;;;;;;;4996093;28;20049;-83
2020/12/13 05:42:58;;;;;;;27.20;15.90;;;;;;;;;;4996458;28;20065;-84
2020/12/13 05:45:41;;;;;;;24.57;15.23;;;;;;;;;;4980084;28;20493;-83
2020/12/13 05:51:10;;;;;;;24.48;15.50;;;;;;;;;;4971265;28;20474;-83
2020/12/13 05:53:36;;;;;;;26.98;15.10;;;;;;;;;;4996564;28;20051;-83
2020/12/13 05:56:04;;;;;;;28.33;15.77;;;;;;;;;;4996476;28;20057;-83
2020/12/13 05:58:30;;;;;;;24.75;15.25;;;;;;;;;;4996931;28;20050;-83
2020/12/13 06:00:57;;;;;;;28.48;16.42;;;;;;;;;;4995691;28;20043;-83
2020/12/13 06:03:31;;;;;;;24.63;15.90;;;;;;;;;;4995560;28;20057;-83
2020/12/13 06:06:04;;;;;;;25.92;15.68;;;;;;;;;;4996631;28;20053;-83
2020/12/13 06:08:42;;;;;;;24.73;15.23;;;;;;;;;;4996666;28;20089;-83
2020/12/13 06:11:08;;;;;;;22.45;15.68;;;;;;;;;;4995462;28;20049;-83
2020/12/13 06:13:38;;;;;;;24.45;15.18;;;;;;;;;;4994546;28;20390;-83
2020/12/13 06:16:04;;;;;;;29.83;15.27;;;;;;;;;;4995770;28;20046;-83
2020/12/13 06:18:31;;;;;;;26.42;16.35;;;;;;;;;;4994950;28;20376;-83
2020/12/13 06:20:58;;;;;;;24.98;16.05;;;;;;;;;;4979135;28;20046;-83
2020/12/13 06:23:26;;;;;;;25.45;16.23;;;;;;;;;;4978797;28;20038;-83
2020/12/13 06:25:52;;;;;;;23.38;15.10;;;;;;;;;;4978499;28;20143;-83
2020/12/13 06:28:18;;;;;;;24.63;16.38;;;;;;;;;;4978406;28;20070;-83
2020/12/13 06:30:44;;;;;;;25.67;15.88;;;;;;;;;;4978086;28;20042;-82
2020/12/13 06:33:10;;;;;;;24.20;16.45;;;;;;;;;;4994429;28;20390;-83
2020/12/13 06:35:37;;;;;;;23.67;15.13;;;;;;;;;;4977946;28;20050;-82
2020/12/13 06:38:14;;;;;;;24.92;16.65;;;;;;;;;;4977875;28;20047;-83
2020/12/13 06:40:40;;;;;;;26.65;16.35;;;;;;;;;;4994963;28;20042;-82
2020/12/13 06:43:08;;;;;;;25.05;15.93;;;;;;;;;;4994027;28;20488;-83
2020/12/13 06:45:34;;;;;;;26.98;16.88;;;;;;;;;;4995289;28;20046;-83
2020/12/13 06:48:00;;;;;;;23.23;14.82;;;;;;;;;;4995980;28;20080;-83
2020/12/13 06:50:26;;;;;;;26.00;16.80;;;;;;;;;;4994891;28;20078;-83
2020/12/13 06:52:54;;;;;;;27.10;16.92;;;;;;;;;;4995015;28;20137;-83
2020/12/13 06:55:30;;;;;;;22.48;15.10;;;;;;;;;;4994819;28;20046;-83
2020/12/13 06:57:56;;;;;;;26.73;16.88;;;;;;;;;;4994993;28;20050;-83
2020/12/13 07:00:22;;;;;;;27.10;16.17;;;;;;;;;;4977798;28;20084;-83
2020/12/13 07:02:55;;;;;;;28.88;17.98;;;;;;;;;;4977959;28;20042;-83
2020/12/13 07:05:21;;;;;;;30.25;17.92;;;;;;;;;;4978112;28;20050;-83
2020/12/13 07:07:52;;;;;;;24.55;15.73;;;;;;;;;;4994348;28;20053;-83
2020/12/13 07:10:19;;;;;;;27.40;16.50;;;;;;;;;;4995003;28;20049;-83
2020/12/13 07:12:50;;;;;;;26.17;15.50;;;;;;;;;;4993453;28;20073;-83
2020/12/13 07:15:23;;;;;;;24.45;16.42;;;;;;;;;;4994915;28;20083;-82
2020/12/13 07:17:50;;;;;;;24.75;15.75;;;;;;;;;;4979226;28;20101;-83
2020/12/13 07:20:16;;;;;;;25.90;16.60;;;;;;;;;;4994829;28;20483;-83
2020/12/13 07:22:43;;;;;;;25.48;14.85;;;;;;;;;;4994565;28;20057;-83
2020/12/13 07:25:10;;;;;;;22.90;15.35;;;;;;;;;;4977526;28;20474;-83
2020/12/13 07:27:36;;;;;;;24.90;15.10;;;;;;;;;;4994442;28;20474;-83
2020/12/13 07:30:03;;;;;;;22.00;15.50;;;;;;;;;;4977426;28;20049;-83
2020/12/13 07:32:29;;;;;;;23.67;14.85;;;;;;;;;;4994408;28;20097;-83
2020/12/13 07:34:55;;;;;;;27.00;15.60;;;;;;;;;;4976352;28;20053;-83
2020/12/13 07:37:21;;;;;;;22.60;14.73;;;;;;;;;;4977087;28;20043;-83
2020/12/13 07:39:47;;;;;;;24.63;16.38;;;;;;;;;;4995235;28;20049;-82
2020/12/13 07:42:14;;;;;;;26.85;16.42;;;;;;;;;;4994310;28;20081;-82
2020/12/13 07:44:41;;;;;;;26.55;16.58;;;;;;;;;;4996191;28;20046;-83
2020/12/13 07:47:07;;;;;;;27.42;17.83;;;;;;;;;;4980912;28;20155;-82
2020/12/13 07:49:33;;;;;;;23.67;16.33;;;;;;;;;;4998235;28;20046;-82
2020/12/13 07:51:59;;;;;;;22.45;15.38;;;;;;;;;;4998331;28;20042;-83
2020/12/13 07:54:26;;;;;;;22.13;15.43;;;;;;;;;;4998695;28;20454;-81
2020/12/13 07:56:53;;;;;;;22.75;16.38;;;;;;;;;;4999368;28;20127;-80
2020/12/13 07:59:22;;;;;;;24.48;15.60;;;;;;;;;;4998427;28;20042;-85
2020/12/13 08:01:49;;;;;;;23.10;15.63;;;;;;;;;;4999148;28;20411;-82
2020/12/13 08:04:15;;;;;;;26.35;17.23;;;;;;;;;;4997846;28;20478;-83
2020/12/13 08:06:42;;;;;;;21.15;14.63;;;;;;;;;;4997971;28;20479;-83
2020/12/13 08:09:10;;;;;;;19.45;14.02;;;;;;;;;;4980843;28;20077;-83
2020/12/13 08:11:36;;;;;;;21.15;15.05;;;;;;;;;;4998844;28;20069;-83
2020/12/13 08:14:04;;;;;;;20.40;13.88;;;;;;;;;;4998246;28;20475;-82
2020/12/13 08:16:31;;;;;;;26.10;17.85;;;;;;;;;;4980951;28;20494;-82
2020/12/13 08:19:05;;;;;;;20.83;14.63;;;;;;;;;;4998379;28;20042;-83
2020/12/13 08:21:36;;;;;;;21.45;15.02;;;;;;;;;;4998774;28;20081;-83
2020/12/13 08:24:03;;;;;;;23.67;15.57;;;;;;;;;;4998552;28;20438;-84
2020/12/13 08:26:29;;;;;;;18.98;14.80;;;;;;;;;;4981115;28;20382;-83
2020/12/13 08:28:56;;;;;;;19.58;14.88;;;;;;;;;;4997719;28;20131;-82
2020/12/13 08:31:24;;;;;;;19.65;13.80;;;;;;;;;;4997395;28;20038;-83
2020/12/13 08:34:00;;;;;;;17.60;13.15;;;;;;;;;;4998423;28;20390;-83
2020/12/13 08:36:26;;;;;;;16.98;13.20;;;;;;;;;;4997586;28;20078;-83
2020/12/13 08:39:00;;;;;;;17.75;12.85;;;;;;;;;;4997884;28;20069;-83
2020/12/13 08:41:26;;;;;;;17.70;13.57;;;;;;;;;;4998841;28;20046;-83
2020/12/13 08:43:52;;;;;;;18.52;13.32;;;;;;;;;;4980480;28;20447;-83
2020/12/13 08:46:34;;;;;;;26.42;17.75;;;;;;;;;;4980385;28;20072;-83
2020/12/13 08:49:01;;;;;;;25.55;17.23;;;;;;;;;;4997652;28;20093;-83
2020/12/13 08:51:27;;;;;;;20.98;15.13;;;;;;;;;;4980524;28;20046;-84
2020/12/13 08:54:02;;;;;;;20.00;15.13;;;;;;;;;;4980577;28;20046;-84
2020/12/13 08:56:33;;;;;;;25.63;17.17;;;;;;;;;;4996724;28;20046;-84
2020/12/13 08:58:59;;;;;;;25.17;17.02;;;;;;;;;;4997344;28;20050;-84
2020/12/13 09:01:34;;;;;;;47.92;29.13;;;;;;;;;;4998354;28;20038;-85
2020/12/13 09:04:01;;;;;;;21.35;15.57;;;;;;;;;;5001686;28;20509;-84
2020/12/13 09:06:31;;;;;;;14.43;11.68;;;;;;;;;;5002140;28;20167;-84
2020/12/13 09:09:08;;;;;;;13.63;10.90;;;;;;;;;;4984931;28;20090;-85
2020/12/13 09:11:34;;;;;;;16.38;12.52;;;;;;;;;;4982222;28;20338;-84
2020/12/13 09:14:00;;;;;;;15.10;11.00;;;;;;;;;;5002093;28;20053;-84
2020/12/13 09:16:28;;;;;;;15.52;11.30;;;;;;;;;;4984523;28;20042;-85
2020/12/13 09:19:09;;;;;;;13.68;10.88;;;;;;;;;;5001044;28;20065;-84
2020/12/13 09:21:46;;;;;;;12.27;9.50;;;;;;;;;;5000219;28;20053;-84
2020/12/13 09:24:12;;;;;;;13.35;10.93;;;;;;;;;;5003186;28;20117;-85
2020/12/13 09:26:38;;;;;;;13.75;10.13;;;;;;;;;;5022647;28;20038;-85
2020/12/13 09:29:04;;;;;;;15.48;11.27;;;;;;;;;;5021070;28;20401;-85
2020/12/13 09:31:30;;;;;;;12.23;9.88;;;;;;;;;;5020904;28;20038;-85
2020/12/13 09:33:56;;;;;;;13.05;10.02;;;;;;;;;;5020236;28;20097;-83
2020/12/13 09:36:22;;;;;;;10.30;8.57;;;;;;;;;;5002044;28;20466;-84
2020/12/13 09:38:48;;;;;;;11.82;9.57;;;;;;;;;;5021327;28;20050;-85
2020/12/13 09:41:18;;;;;;;11.13;8.95;;;;;;;;;;5021574;28;20434;-84
2020/12/13 09:43:44;;;;;;;10.43;9.05;;;;;;;;;;5004650;28;20038;-85
2020/12/13 09:46:10;;;;;;;11.32;9.45;;;;;;;;;;5008496;28;20049;-85
2020/12/13 09:48:36;;;;;;;13.38;10.05;;;;;;;;;;5027904;28;20042;-85
2020/12/13 09:51:02;;;;;;;12.27;9.05;;;;;;;;;;5010232;28;20057;-84
2020/12/13 09:53:29;;;;;;;12.18;9.55;;;;;;;;;;5025754;28;20042;-84
2020/12/13 09:55:55;;;;;;;11.48;8.05;;;;;;;;;;5010029;28;20049;-84
2020/12/13 09:58:21;;;;;;;12.73;8.73;;;;;;;;;;5009622;28;20045;-84
2020/12/13 10:00:47;;;;;;;11.77;8.88;;;;;;;;;;5025371;28;20147;-85
2020/12/13 10:03:13;;;;;;;8.93;6.85;;;;;;;;;;5007869;28;20049;-84
2020/12/13 10:05:53;;;;;;;9.68;7.18;;;;;;;;;;5006285;28;20048;-84
2020/12/13 10:11:06;;;;;;;9.45;7.18;;;;;;;;;;4990655;28;20370;-84
2020/12/13 10:13:32;;;;;;;7.93;6.68;;;;;;;;;;5001902;28;20081;-83
2020/12/13 10:15:58;;;;;;;7.65;6.00;;;;;;;;;;5001286;28;20496;-84
2020/12/13 10:18:24;;;;;;;7.85;6.25;;;;;;;;;;4986343;28;20370;-84
2020/12/13 10:20:50;;;;;;;6.97;5.88;;;;;;;;;;5001427;28;20104;-85
2020/12/13 10:23:16;;;;;;;7.25;6.05;;;;;;;;;;5019202;28;20429;-84
2020/12/13 10:25:46;;;;;;;7.53;6.00;;;;;;;;;;5001665;28;20176;-85
2020/12/13 10:28:13;;;;;;;7.10;5.35;;;;;;;;;;5002489;28;20069;-84
2020/12/13 10:30:39;;;;;;;7.55;5.32;;;;;;;;;;5018536;28;20056;-84
2020/12/13 10:33:05;;;;;;;6.38;4.75;;;;;;;;;;5018045;28;20449;-85
2020/12/13 10:35:31;;;;;;;6.90;5.25;;;;;;;;;;5001735;28;20045;-85
2020/12/13 10:38:02;;;;;;;7.25;5.40;;;;;;;;;;5021011;28;20042;-84
2020/12/13 10:40:28;;;;;;;5.82;4.82;;;;;;;;;;5000645;28;20457;-85
2020/12/13 10:42:54;;;;;;;7.28;5.68;;;;;;;;;;5001700;28;20045;-85
2020/12/13 10:45:21;;;;;;;7.65;5.25;;;;;;;;;;5020466;28;20081;-85
2020/12/13 10:47:47;;;;;;;7.90;6.18;;;;;;;;;;5001940;28;20046;-85
2020/12/13 10:50:13;;;;;;;8.80;5.90;;;;;;;;;;5002505;28;20073;-85
2020/12/13 10:52:39;;;;;;;6.32;4.38;;;;;;;;;;5019219;28;20051;-85
2020/12/13 10:55:05;;;;;;;6.25;4.95;;;;;;;;;;5002894;28;20049;-85
2020/12/13 10:57:31;;;;;;;5.88;4.68;;;;;;;;;;4987855;28;20046;-85
2020/12/13 10:59:57;;;;;;;7.75;4.93;;;;;;;;;;5019966;28;20112;-85
2020/12/13 11:02:25;;;;;;;6.07;4.95;;;;;;;;;;5001710;28;20052;-85
2020/12/13 11:04:56;;;;;;;6.13;4.93;;;;;;;;;;5005151;28;20374;-86
2020/12/13 11:07:22;;;;;;;5.97;4.80;;;;;;;;;;5005182;28;20462;-86
2020/12/13 11:09:52;;;;;;;6.18;4.53;;;;;;;;;;5003818;28;20052;-85
2020/12/13 11:12:19;;;;;;;5.82;4.47;;;;;;;;;;5005229;28;20084;-86
2020/12/13 11:14:45;;;;;;;8.07;4.70;;;;;;;;;;5004255;28;20046;-86
2020/12/13 11:17:11;;;;;;;6.28;4.88;;;;;;;;;;5021307;28;20077;-85
2020/12/13 11:19:38;;;;;;;7.28;5.15;;;;;;;;;;5020839;28;20050;-85
2020/12/13 11:22:04;;;;;;;5.47;4.63;;;;;;;;;;5020604;28;20477;-86
2020/12/13 11:24:30;;;;;;;6.35;5.53;;;;;;;;;;5021998;28;20046;-84
2020/12/13 11:26:57;;;;;;;6.90;5.55;;;;;;;;;;5022752;28;20052;-86
2020/12/13 11:29:24;;;;;;;5.85;4.55;;;;;;;;;;5005391;28;20038;-86
2020/12/13 11:31:51;;;;;;;7.53;5.57;;;;;;;;;;5015021;28;20050;-86
2020/12/13 11:34:17;;;;;;;9.15;6.85;;;;;;;;;;4983155;28;20046;-86
2020/12/13 11:36:46;;;;;;;7.90;6.25;;;;;;;;;;4983161;28;20050;-87
2020/12/13 11:39:12;;;;;;;9.07;7.07;;;;;;;;;;4999493;28;20054;-87
2020/12/13 11:41:38;;;;;;;7.93;6.35;;;;;;;;;;5000170;28;20048;-86
2020/12/13 11:44:04;;;;;;;10.02;7.18;;;;;;;;;;4981803;28;20410;-87
2020/12/13 11:46:30;;;;;;;7.97;6.35;;;;;;;;;;4982232;28;20042;-87
2020/12/13 11:48:57;;;;;;;9.35;6.72;;;;;;;;;;4998134;28;20054;-87
2020/12/13 11:51:23;;;;;;;9.30;6.38;;;;;;;;;;4982660;28;20138;-87
2020/12/13 11:53:50;;;;;;;9.63;7.28;;;;;;;;;;4983717;28;20050;-86
2020/12/13 11:56:20;;;;;;;8.00;6.38;;;;;;;;;;4985278;28;20085;-86
2020/12/13 11:58:47;;;;;;;8.80;6.78;;;;;;;;;;5000817;28;20125;-86
2020/12/13 12:01:19;;;;;;;9.35;7.00;;;;;;;;;;4984250;28;20038;-86
2020/12/13 12:03:47;;;;;;;7.90;6.60;;;;;;;;;;4985620;28;20097;-86
2020/12/13 12:06:14;;;;;;;7.40;6.28;;;;;;;;;;4984000;28;20061;-86
2020/12/13 12:08:42;;;;;;;8.13;6.40;;;;;;;;;;4968623;28;20042;-86
2020/12/13 12:11:09;;;;;;;8.60;6.85;;;;;;;;;;5001380;28;20046;-86
2020/12/13 12:13:36;;;;;;;8.35;6.68;;;;;;;;;;4984459;28;20048;-87
2020/12/13 12:16:05;;;;;;;8.10;6.80;;;;;;;;;;4954796;28;20053;-86
2020/12/13 12:18:36;;;;;;;10.50;8.30;;;;;;;;;;5005637;28;20042;-87
2020/12/13 12:21:10;;;;;;;8.68;6.82;;;;;;;;;;5005567;28;20054;-86
2020/12/13 12:23:36;;;;;;;7.60;6.30;;;;;;;;;;5002529;28;20053;-85
2020/12/13 12:26:03;;;;;;;10.05;6.90;;;;;;;;;;4985270;28;20046;-85
2020/12/13 12:28:33;;;;;;;10.68;7.18;;;;;;;;;;4980359;28;20092;-86
2020/12/13 12:30:59;;;;;;;8.95;7.03;;;;;;;;;;5023452;28;20065;-86
2020/12/13 12:33:25;;;;;;;10.25;6.90;;;;;;;;;;5008112;28;20050;-85
2020/12/13 12:35:51;;;;;;;11.02;7.07;;;;;;;;;;5023436;28;20053;-84
2020/12/13 12:38:17;;;;;;;9.88;7.72;;;;;;;;;;5024150;28;20050;-84
2020/12/13 12:40:43;;;;;;;9.38;7.40;;;;;;;;;;5006410;28;20157;-84
2020/12/13 12:43:09;;;;;;;9.13;7.15;;;;;;;;;;5024003;28;20377;-85
2020/12/13 12:45:36;;;;;;;10.95;7.13;;;;;;;;;;5024647;28;20045;-85
2020/12/13 12:48:03;;;;;;;9.48;7.72;;;;;;;;;;5006997;28;20053;-85
2020/12/13 12:50:29;;;;;;;9.68;7.28;;;;;;;;;;4997577;28;20053;-85
2020/12/13 12:52:55;;;;;;;11.10;7.38;;;;;;;;;;5010548;28;20389;-85
2020/12/13 12:55:21;;;;;;;10.48;7.80;;;;;;;;;;5010208;28;20042;-84
2020/12/13 12:57:49;;;;;;;10.23;7.57;;;;;;;;;;4987796;28;20049;-86
2020/12/13 13:02:59;;;;;;;12.18;8.77;;;;;;;;;;4991365;28;20121;-86
2020/12/13 13:05:31;;;;;;;15.13;11.15;;;;;;;;;;4991704;28;20069;-86
2020/12/13 13:07:58;;;;;;;12.95;10.23;;;;;;;;;;5007249;28;20050;-85
2020/12/13 13:10:27;;;;;;;13.52;9.40;;;;;;;;;;5010362;28;20041;-86
2020/12/13 13:12:55;;;;;;;11.27;9.35;;;;;;;;;;5009512;28;20048;-85
2020/12/13 13:15:26;;;;;;;12.77;10.20;;;;;;;;;;4989239;28;20038;-85
2020/12/13 13:17:54;;;;;;;9.82;7.90;;;;;;;;;;5008770;28;20065;-84
2020/12/13 13:20:21;;;;;;;9.05;7.30;;;;;;;;;;4982785;28;20129;-85
2020/12/13 13:22:47;;;;;;;9.55;7.90;;;;;;;;;;4990752;28;20380;-85
2020/12/13 13:25:14;;;;;;;11.48;8.20;;;;;;;;;;5008126;28;20053;-83
2020/12/13 13:27:40;;;;;;;8.80;7.13;;;;;;;;;;4992161;28;20038;-85
2020/12/13 13:30:12;;;;;;;9.68;7.70;;;;;;;;;;4969226;28;20046;-84
2020/12/13 13:32:38;;;;;;;11.68;8.15;;;;;;;;;;4989042;28;20530;-85
2020/12/13 13:35:04;;;;;;;9.50;7.57;;;;;;;;;;4978075;28;20479;-85
2020/12/13 13:37:32;;;;;;;9.70;7.53;;;;;;;;;;5009829;28;20038;-86
2020/12/13 13:39:58;;;;;;;11.63;8.07;;;;;;;;;;5007694;28;20046;-85
2020/12/13 13:42:27;;;;;;;9.60;7.78;;;;;;;;;;5010306;28;20042;-84
2020/12/13 13:44:58;;;;;;;9.20;7.45;;;;;;;;;;5010028;28;20506;-84
2020/12/13 13:47:30;;;;;;;11.90;8.57;;;;;;;;;;5021238;28;20080;-85
2020/12/13 13:50:00;;;;;;;12.45;8.73;;;;;;;;;;5020944;28;20038;-85
2020/12/13 13:52:26;;;;;;;10.75;8.07;;;;;;;;;;5017620;28;20042;-84
2020/12/13 13:54:56;;;;;;;9.40;6.45;;;;;;;;;;5002240;28;20049;-84
2020/12/13 13:57:24;;;;;;;9.52;7.63;;;;;;;;;;5002224;28;20146;-84
2020/12/13 13:59:52;;;;;;;9.35;7.72;;;;;;;;;;4984096;28;20488;-83
2020/12/13 14:02:18;;;;;;;11.38;7.68;;;;;;;;;;5002734;28;20046;-84
2020/12/13 14:04:44;;;;;;;9.80;7.25;;;;;;;;;;5020258;28;20033;-85
2020/12/13 14:09:57;;;;;;;8.00;7.20;;;;;;;;;;5001658;28;20045;-85
2020/12/13 14:12:23;;;;;;;10.55;8.38;;;;;;;;;;4986653;28;20050;-84
2020/12/13 14:14:49;;;;;;;10.65;8.70;;;;;;;;;;5002600;28;20081;-85
2020/12/13 14:17:15;;;;;;;10.75;8.65;;;;;;;;;;4985900;28;20042;-84
2020/12/13 14:19:41;;;;;;;12.65;7.72;;;;;;;;;;5010640;28;20128;-84
2020/12/13 14:22:07;;;;;;;12.13;8.25;;;;;;;;;;5006426;28;20648;-84
2020/12/13 14:24:33;;;;;;;10.15;8.07;;;;;;;;;;5009583;28;20053;-84
2020/12/13 14:27:01;;;;;;;9.90;7.15;;;;;;;;;;5021765;28;20045;-85
2020/12/13 14:29:27;;;;;;;10.82;8.23;;;;;;;;;;4992428;28;20042;-85
2020/12/13 14:31:53;;;;;;;9.25;8.25;;;;;;;;;;4963516;28;20101;-84
2020/12/13 14:34:19;;;;;;;8.70;7.25;;;;;;;;;;4982518;28;20050;-84
2020/12/13 14:36:46;;;;;;;9.93;8.10;;;;;;;;;;4981440;28;20043;-83
2020/12/13 14:39:13;;;;;;;9.40;6.95;;;;;;;;;;4984566;28;20093;-85